createdAt,value
2022-10-19T00:02:11.685Z,78.56
2022-10-19T00:04:41.451Z,78.45
2022-10-19T00:07:11.170Z,77.79
2022-10-19T00:09:40.910Z,77.82
2022-10-19T00:12:13.202Z,77.94
2022-10-19T00:14:42.950Z,77.88
2022-10-19T00:17:12.695Z,77.82
2022-10-19T00:19:42.819Z,77.18
2022-10-19T00:22:14.028Z,78.21
2022-10-19T00:24:44.006Z,77.84
2022-10-19T00:27:13.735Z,78.94
2022-10-19T00:29:43.679Z,78.48
2022-10-19T00:32:13.250Z,78.76
2022-10-19T00:34:43.047Z,78.90
2022-10-19T00:37:12.769Z,78.43
2022-10-19T00:39:42.570Z,77.75
2022-10-19T00:42:13.418Z,78.09
2022-10-19T00:44:48.981Z,78.71
2022-10-19T00:47:21.564Z,78.68
2022-10-19T00:49:52.149Z,78.67
2022-10-19T00:52:24.849Z,78.26
2022-10-19T00:54:56.426Z,78.37
2022-10-19T00:57:29.520Z,78.15
2022-10-19T01:00:02.419Z,78.28
2022-10-19T01:02:32.532Z,78.73
2022-10-19T01:05:03.107Z,78.70
2022-10-19T01:07:33.506Z,78.30
2022-10-19T01:10:04.643Z,77.39
2022-10-19T01:12:46.467Z,77.73
2022-10-19T01:15:41.492Z,78.13
2022-10-19T01:18:29.276Z,78.47
2022-10-19T01:21:04.620Z,78.00
2022-10-19T01:23:55.583Z,78.18
2022-10-19T01:26:47.106Z,77.86
2022-10-19T01:29:36.262Z,77.86
2022-10-19T01:32:23.309Z,78.03
2022-10-19T01:35:20.080Z,78.04
2022-10-19T01:37:55.472Z,78.04
2022-10-19T01:40:31.450Z,78.13
2022-10-19T01:43:16.229Z,78.17
2022-10-19T01:46:00.811Z,78.32
2022-10-19T01:48:33.454Z,78.14
2022-10-19T01:51:17.940Z,78.61
2022-10-19T01:53:50.839Z,78.30
2022-10-19T01:56:23.755Z,78.21
2022-10-19T01:58:56.267Z,78.07
2022-10-19T02:01:28.357Z,78.21
2022-10-19T02:03:59.411Z,77.70
2022-10-19T02:06:29.755Z,78.32
2022-10-19T02:09:00.013Z,79.11
2022-10-19T02:11:31.187Z,78.90
2022-10-19T02:14:03.974Z,79.51
2022-10-19T02:16:39.759Z,79.41
2022-10-19T02:19:10.939Z,79.09
2022-10-19T02:21:41.405Z,78.48
2022-10-19T02:24:12.949Z,78.36
2022-10-19T02:26:43.521Z,79.43
2022-10-19T02:29:15.871Z,79.87
2022-10-19T02:31:46.133Z,80.34
2022-10-19T02:34:16.058Z,80.10
2022-10-19T02:36:45.838Z,80.41
2022-10-19T02:39:15.639Z,79.80
2022-10-19T02:41:51.100Z,79.98
2022-10-19T02:44:23.643Z,79.45
2022-10-19T02:46:56.707Z,79.05
2022-10-19T02:49:28.172Z,79.10
2022-10-19T02:52:02.552Z,79.75
2022-10-19T02:54:32.301Z,80.29
2022-10-19T02:57:03.368Z,80.19
2022-10-19T02:59:33.396Z,79.75
2022-10-19T03:02:03.184Z,79.73
2022-10-19T03:04:32.986Z,78.40
2022-10-19T03:07:02.820Z,78.40
2022-10-19T03:09:32.257Z,79.23
2022-10-19T03:12:01.993Z,79.47
2022-10-19T03:14:31.736Z,79.09
2022-10-19T03:17:01.197Z,78.98
2022-10-19T03:19:31.468Z,78.92
2022-10-19T03:22:01.508Z,78.95
2022-10-19T03:24:34.469Z,78.95
2022-10-19T03:27:03.988Z,78.57
2022-10-19T03:29:33.717Z,78.41
2022-10-19T03:32:03.594Z,78.77
2022-10-19T03:34:33.633Z,78.87
2022-10-19T03:37:03.367Z,79.16
2022-10-19T03:39:33.384Z,79.08
2022-10-19T03:42:03.207Z,78.04
2022-10-19T03:44:33.014Z,78.45
2022-10-19T03:47:02.749Z,78.45
2022-10-19T03:49:34.626Z,79.25
2022-10-19T03:52:05.389Z,78.61
2022-10-19T03:54:35.159Z,78.98
2022-10-19T03:57:04.936Z,79.60
2022-10-19T03:59:34.689Z,79.51
2022-10-19T04:02:04.955Z,79.21
2022-10-19T04:04:34.718Z,78.96
2022-10-19T04:07:04.433Z,79.33
2022-10-19T04:09:34.168Z,79.08
2022-10-19T04:12:04.714Z,79.21
2022-10-19T04:14:52.429Z,80.04
2022-10-19T04:17:06.318Z,79.62
2022-10-19T04:19:36.042Z,79.62
2022-10-19T04:22:07.723Z,79.15
2022-10-19T04:24:37.482Z,79.73
2022-10-19T04:27:07.247Z,80.18
2022-10-19T04:29:37.057Z,79.40
2022-10-19T04:32:08.203Z,79.48
2022-10-19T04:34:39.983Z,79.13
2022-10-19T04:37:09.362Z,79.06
2022-10-19T04:39:41.051Z,79.24
2022-10-19T04:42:12.285Z,79.24
2022-10-19T04:44:42.326Z,80.04
2022-10-19T04:47:12.441Z,80.01
2022-10-19T04:49:42.480Z,80.92
2022-10-19T04:52:13.873Z,80.27
2022-10-19T04:54:43.961Z,80.94
2022-10-19T04:57:13.778Z,80.24
2022-10-19T04:59:43.800Z,79.61
2022-10-19T05:02:13.531Z,80.27
2022-10-19T05:04:45.169Z,80.21
2022-10-19T05:07:14.690Z,80.45
2022-10-19T05:09:44.437Z,81.04
2022-10-19T05:12:14.191Z,81.04
2022-10-19T05:14:43.954Z,80.45
2022-10-19T05:17:13.767Z,79.96
2022-10-19T05:19:43.857Z,79.97
2022-10-19T05:22:13.599Z,79.91
2022-10-19T05:24:43.627Z,80.44
2022-10-19T05:27:13.364Z,78.82
2022-10-19T05:29:43.153Z,79.26
2022-10-19T05:32:13.006Z,79.47
2022-10-19T05:34:42.796Z,79.98
2022-10-19T05:37:12.521Z,79.43
2022-10-19T05:39:42.530Z,79.74
2022-10-19T05:42:12.498Z,79.83
2022-10-19T05:44:42.507Z,79.45
2022-10-19T05:47:12.316Z,79.55
2022-10-19T05:49:42.340Z,80.01
2022-10-19T05:52:13.705Z,80.01
2022-10-19T05:54:43.727Z,79.82
2022-10-19T05:57:13.502Z,79.86
2022-10-19T05:59:43.546Z,79.59
2022-10-19T06:02:15.529Z,79.27
2022-10-19T06:04:45.314Z,80.03
2022-10-19T06:07:15.332Z,79.52
2022-10-19T06:09:45.920Z,79.85
2022-10-19T06:12:16.349Z,78.78
2022-10-19T06:17:16.180Z,78.46
2022-10-19T06:19:46.195Z,79.47
2022-10-19T06:22:16.034Z,79.68
2022-10-19T06:24:46.058Z,80.13
2022-10-19T06:27:15.586Z,79.96
2022-10-19T06:29:45.351Z,79.71
2022-10-19T06:32:15.398Z,79.12
2022-10-19T06:34:45.143Z,79.54
2022-10-19T06:37:14.910Z,79.67
2022-10-19T06:39:44.718Z,79.77
2022-10-19T06:42:15.533Z,79.94
2022-10-19T06:44:45.656Z,80.01
2022-10-19T06:47:15.702Z,79.67
2022-10-19T06:49:45.441Z,79.89
2022-10-19T06:52:15.366Z,79.89
2022-10-19T06:54:45.112Z,79.13
2022-10-19T06:57:14.860Z,78.40
2022-10-19T06:59:45.076Z,78.48
2022-10-19T07:02:14.649Z,77.87
2022-10-19T07:04:44.528Z,78.14
2022-10-19T07:07:14.291Z,78.08
2022-10-19T07:09:44.336Z,78.64
2022-10-19T07:12:13.889Z,78.75
2022-10-19T07:14:43.734Z,79.85
2022-10-19T07:17:13.658Z,80.29
2022-10-19T07:19:43.718Z,79.37
2022-10-19T07:22:19.150Z,79.70
2022-10-19T07:24:45.434Z,79.11
2022-10-19T07:27:15.596Z,78.89
2022-10-19T07:29:45.432Z,78.54
2022-10-19T07:32:15.258Z,78.68
2022-10-19T07:34:45.047Z,78.09
2022-10-19T07:37:14.771Z,77.90
2022-10-19T07:39:44.511Z,79.31
2022-10-19T07:42:14.129Z,78.48
2022-10-19T07:44:44.216Z,78.48
2022-10-19T07:47:14.271Z,78.85
2022-10-19T07:49:44.293Z,78.16
2022-10-19T07:52:14.121Z,78.84
2022-10-19T07:54:43.915Z,77.81
2022-10-19T07:57:13.656Z,78.79
2022-10-19T07:59:43.493Z,78.74
2022-10-19T08:02:17.972Z,79.07
2022-10-19T08:05:00.264Z,78.68
2022-10-19T08:07:19.583Z,78.87
2022-10-19T08:09:54.078Z,78.04
2022-10-19T08:12:20.986Z,78.67
2022-10-19T08:14:50.844Z,78.26
2022-10-19T08:17:20.665Z,78.53
2022-10-19T08:19:50.439Z,77.67
2022-10-19T08:22:20.199Z,77.38
2022-10-19T08:24:50.372Z,76.94
2022-10-19T08:27:20.126Z,77.38
2022-10-19T08:29:51.446Z,77.48
2022-10-19T08:32:21.422Z,77.42
2022-10-19T08:34:51.194Z,78.34
2022-10-19T08:37:40.128Z,77.37
2022-10-19T08:39:52.384Z,77.61
2022-10-19T08:42:25.196Z,78.71
2022-10-19T08:45:16.087Z,78.71
2022-10-19T08:48:00.846Z,78.64
2022-10-19T08:50:39.290Z,78.49
2022-10-19T08:53:18.000Z,78.92
2022-10-19T08:56:08.720Z,77.73
2022-10-19T08:58:56.086Z,77.19
2022-10-19T09:01:43.455Z,77.43
2022-10-19T09:04:26.759Z,76.82
2022-10-19T09:07:01.972Z,76.24
2022-10-19T09:09:34.180Z,74.71
2022-10-19T09:12:07.257Z,73.93
2022-10-19T09:14:54.697Z,73.86
2022-10-19T09:17:25.336Z,73.18
2022-10-19T09:19:55.110Z,71.37
2022-10-19T09:22:36.453Z,70.28
2022-10-19T09:25:21.653Z,71.58
2022-10-19T09:27:54.446Z,69.86
2022-10-19T09:30:25.651Z,69.62
2022-10-19T09:33:02.842Z,68.02
2022-10-19T09:35:38.145Z,65.17
2022-10-19T09:38:08.402Z,65.78
2022-10-19T09:40:38.214Z,64.70
2022-10-19T09:43:11.580Z,64.70
2022-10-19T09:46:13.889Z,65.31
2022-10-19T09:48:53.118Z,64.87
2022-10-19T09:51:23.730Z,62.80
2022-10-19T09:53:59.695Z,63.99
2022-10-19T09:56:29.506Z,62.07
2022-10-19T09:58:59.933Z,62.14
2022-10-19T10:01:41.691Z,62.70
2022-10-19T10:04:09.852Z,61.34
2022-10-19T10:06:40.614Z,63.55
2022-10-19T10:09:19.142Z,61.38
2022-10-19T10:11:51.729Z,60.97
2022-10-19T10:14:31.646Z,61.42
2022-10-19T10:17:07.697Z,60.57
2022-10-19T10:19:37.908Z,60.33
2022-10-19T10:22:10.688Z,59.87
2022-10-19T10:24:43.476Z,59.42
2022-10-19T10:27:16.263Z,59.27
2022-10-19T10:29:49.354Z,59.42
2022-10-19T10:32:22.737Z,59.60
2022-10-19T10:35:04.703Z,59.20
2022-10-19T10:37:46.320Z,58.90
2022-10-19T10:40:23.648Z,58.90
2022-10-19T10:42:55.915Z,59.45
2022-10-19T10:45:43.164Z,59.74
2022-10-19T10:48:31.814Z,58.96
2022-10-19T10:51:02.987Z,59.45
2022-10-19T10:53:39.200Z,58.91
2022-10-19T10:56:16.383Z,58.13
2022-10-19T10:58:49.181Z,58.60
2022-10-19T11:01:24.740Z,57.36
2022-10-19T11:03:57.821Z,57.36
2022-10-19T11:06:27.603Z,57.34
2022-10-19T11:09:28.465Z,57.20
2022-10-19T11:12:01.535Z,57.70
2022-10-19T11:14:39.734Z,57.31
2022-10-19T11:17:12.523Z,56.69
2022-10-19T11:19:45.250Z,56.65
2022-10-19T11:22:37.964Z,56.20
2022-10-19T11:25:29.080Z,55.49
2022-10-19T11:28:11.409Z,55.79
2022-10-19T11:31:02.205Z,55.79
2022-10-19T11:36:27.362Z,57.24
2022-10-19T11:39:02.886Z,55.93
2022-10-19T11:41:44.085Z,55.93
2022-10-19T11:44:31.434Z,55.92
2022-10-19T11:47:12.355Z,55.72
2022-10-19T11:52:49.296Z,55.52
2022-10-19T11:55:21.829Z,56.41
2022-10-19T11:58:07.369Z,54.98
2022-10-19T12:00:48.927Z,54.98
2022-10-19T12:03:24.909Z,54.89
2022-10-19T12:06:07.593Z,55.78
2022-10-19T12:08:58.247Z,54.58
2022-10-19T12:11:45.926Z,55.06
2022-10-19T12:14:42.038Z,53.92
2022-10-19T12:17:17.331Z,54.06
2022-10-19T12:19:53.080Z,53.69
2022-10-19T12:22:25.888Z,52.86
2022-10-19T12:24:57.799Z,53.33
2022-10-19T12:27:39.858Z,53.82
2022-10-19T12:30:18.264Z,53.02
2022-10-19T12:33:07.058Z,53.25
2022-10-19T12:35:45.615Z,52.94
2022-10-19T12:38:21.238Z,50.86
2022-10-19T12:40:54.012Z,50.86
2022-10-19T12:43:29.850Z,50.17
2022-10-19T12:46:24.719Z,50.17
2022-10-19T12:49:29.473Z,51.48
2022-10-19T12:52:01.567Z,51.48
2022-10-19T12:54:34.877Z,51.07
2022-10-19T12:57:07.440Z,51.07
2022-10-19T12:59:38.400Z,51.24
2022-10-19T13:02:11.189Z,51.24
2022-10-19T13:04:42.431Z,50.86
2022-10-19T13:07:15.513Z,51.08
2022-10-19T13:09:48.349Z,51.91
2022-10-19T13:12:25.637Z,51.65
2022-10-19T13:15:05.014Z,52.81
2022-10-19T13:17:38.117Z,52.40
2022-10-19T13:20:19.645Z,51.80
2022-10-19T13:23:04.271Z,51.85
2022-10-19T13:25:41.007Z,51.75
2022-10-19T13:28:12.594Z,52.67
2022-10-19T13:30:44.973Z,52.46
2022-10-19T13:33:31.699Z,52.51
2022-10-19T13:36:04.561Z,53.25
2022-10-19T13:41:25.578Z,52.50
2022-10-19T13:44:14.287Z,51.16
2022-10-19T13:47:06.684Z,51.58
2022-10-19T13:49:57.425Z,50.59
2022-10-19T13:52:57.016Z,50.66
2022-10-19T13:55:47.322Z,50.78
2022-10-19T13:58:30.279Z,52.04
2022-10-19T14:01:24.066Z,52.89
2022-10-19T14:04:05.739Z,52.04
2022-10-19T14:06:41.308Z,52.33
2022-10-19T14:09:16.848Z,53.26
2022-10-19T14:11:49.161Z,52.27
2022-10-19T14:14:24.325Z,53.04
2022-10-19T14:16:59.703Z,52.93
2022-10-19T14:19:31.546Z,53.65
2022-10-19T14:22:04.322Z,53.12
2022-10-19T14:24:36.896Z,52.93
2022-10-19T14:27:08.556Z,53.22
2022-10-19T14:29:50.334Z,52.06
2022-10-19T14:32:28.635Z,52.27
2022-10-19T14:35:01.281Z,52.49
2022-10-19T14:37:31.158Z,52.33
2022-10-19T14:40:06.814Z,52.50
2022-10-19T14:42:44.806Z,52.48
2022-10-19T14:45:23.029Z,53.36
2022-10-19T14:48:02.074Z,52.92
2022-10-19T14:50:52.774Z,52.98
2022-10-19T14:53:40.490Z,54.42
2022-10-19T14:56:18.857Z,55.01
2022-10-19T14:58:51.628Z,54.46
2022-10-19T15:01:22.153Z,54.95
2022-10-19T15:03:52.489Z,55.72
2022-10-19T15:06:27.658Z,54.50
2022-10-19T15:09:00.783Z,54.92
2022-10-19T15:11:36.175Z,54.00
2022-10-19T15:14:08.665Z,55.21
2022-10-19T15:16:46.883Z,55.17
2022-10-19T15:19:21.921Z,56.43
2022-10-19T15:22:10.392Z,55.79
2022-10-19T15:24:41.390Z,56.40
2022-10-19T15:27:13.797Z,57.61
2022-10-19T15:29:46.587Z,57.93
2022-10-19T15:32:22.780Z,57.89
2022-10-19T15:34:52.927Z,58.13
2022-10-19T15:37:27.920Z,58.61
2022-10-19T15:39:56.302Z,58.12
2022-10-19T15:42:44.234Z,58.98
2022-10-19T15:45:38.518Z,59.47
2022-10-19T15:48:28.158Z,59.34
2022-10-19T15:50:58.756Z,59.28
2022-10-19T15:53:28.961Z,59.61
2022-10-19T15:55:59.728Z,59.83
2022-10-19T15:58:29.480Z,59.60
2022-10-19T16:00:59.024Z,60.11
2022-10-19T16:03:28.769Z,60.40
2022-10-19T16:05:58.481Z,60.68
2022-10-19T16:08:28.288Z,60.68
2022-10-19T16:10:58.034Z,61.25
2022-10-19T16:13:27.612Z,61.03
2022-10-19T16:16:10.632Z,62.23
2022-10-19T16:18:34.815Z,61.79
2022-10-19T16:21:04.903Z,61.88
2022-10-19T16:23:39.382Z,63.49
2022-10-19T16:26:08.691Z,63.49
2022-10-19T16:28:38.852Z,63.03
2022-10-19T16:31:08.769Z,63.30
2022-10-19T16:33:38.597Z,63.22
2022-10-19T16:36:09.377Z,63.48
2022-10-19T16:38:39.124Z,64.07
2022-10-19T16:41:10.991Z,62.92
2022-10-19T16:43:41.198Z,63.61
2022-10-19T16:46:11.645Z,63.52
2022-10-19T16:48:41.426Z,63.63
2022-10-19T16:51:14.208Z,63.63
2022-10-19T16:53:43.707Z,64.22
2022-10-19T16:56:15.234Z,64.33
2022-10-19T16:58:44.685Z,65.12
2022-10-19T17:01:17.580Z,65.13
2022-10-19T17:03:48.541Z,64.84
2022-10-19T17:06:19.209Z,65.49
2022-10-19T17:11:24.181Z,65.44
2022-10-19T17:13:56.678Z,65.40
2022-10-19T17:16:28.239Z,65.53
2022-10-19T17:19:00.217Z,66.01
2022-10-19T17:21:32.494Z,65.28
2022-10-19T17:24:05.352Z,65.10
2022-10-19T17:26:38.419Z,65.82
2022-10-19T17:29:08.826Z,65.62
2022-10-19T17:31:39.995Z,65.45
2022-10-19T17:34:12.108Z,65.59
2022-10-19T17:36:44.996Z,65.17
2022-10-19T17:39:18.166Z,66.05
2022-10-19T17:41:49.037Z,66.21
2022-10-19T17:44:21.032Z,65.79
2022-10-19T17:46:51.076Z,65.79
2022-10-19T17:49:21.094Z,65.26
2022-10-19T17:51:53.367Z,65.56
2022-10-19T17:54:23.211Z,65.84
2022-10-19T17:56:53.038Z,66.79
2022-10-19T17:59:34.609Z,66.29
2022-10-19T18:01:54.211Z,67.01
2022-10-19T18:04:24.003Z,66.70
2022-10-19T18:06:54.072Z,66.63
2022-10-19T18:09:23.821Z,66.53
2022-10-19T18:11:53.572Z,67.46
2022-10-19T18:14:23.205Z,67.20
2022-10-19T18:16:53.301Z,67.26
2022-10-19T18:19:23.138Z,66.79
2022-10-19T18:21:53.317Z,67.50
2022-10-19T18:24:23.067Z,67.84
2022-10-19T18:26:53.083Z,67.42
2022-10-19T18:29:25.369Z,67.64
2022-10-19T18:31:55.529Z,68.23
2022-10-19T18:34:27.202Z,68.08
2022-10-19T18:36:56.964Z,67.58
2022-10-19T18:39:26.711Z,68.41
2022-10-19T18:41:56.545Z,68.27
2022-10-19T18:44:27.373Z,68.18
2022-10-19T18:46:58.730Z,68.62
2022-10-19T18:49:28.513Z,67.80
2022-10-19T18:51:58.241Z,68.25
2022-10-19T18:54:28.130Z,68.88
2022-10-19T18:56:58.217Z,68.92
2022-10-19T19:01:58.366Z,68.46
2022-10-19T19:04:27.809Z,68.29
2022-10-19T19:06:57.549Z,69.02
2022-10-19T19:09:27.289Z,69.50
2022-10-19T19:11:58.339Z,69.50
2022-10-19T19:14:28.342Z,69.50
2022-10-19T19:16:58.095Z,68.95
2022-10-19T19:19:29.201Z,69.07
2022-10-19T19:22:01.627Z,69.73
2022-10-19T19:24:32.705Z,69.20
2022-10-19T19:27:02.459Z,69.74
2022-10-19T19:29:32.272Z,69.76
2022-10-19T19:32:02.538Z,69.56
2022-10-19T19:34:32.278Z,69.51
2022-10-19T19:37:04.102Z,69.86
2022-10-19T19:39:33.755Z,70.18
2022-10-19T19:42:05.296Z,69.73
2022-10-19T19:44:35.044Z,70.35
2022-10-19T19:47:05.750Z,70.49
2022-10-19T19:49:35.486Z,69.96
2022-10-19T19:52:06.559Z,69.63
2022-10-19T19:54:36.279Z,70.48
2022-10-19T19:57:07.593Z,70.64
2022-10-19T19:59:37.660Z,70.45
2022-10-19T20:02:07.671Z,69.82
2022-10-19T20:04:37.477Z,69.97
2022-10-19T20:07:06.963Z,70.32
2022-10-19T20:09:36.710Z,70.73
2022-10-19T20:12:08.073Z,70.86
2022-10-19T20:14:37.804Z,70.79
2022-10-19T20:17:07.549Z,70.42
2022-10-19T20:19:37.409Z,70.77
2022-10-19T20:22:07.545Z,70.22
2022-10-19T20:24:37.832Z,71.02
2022-10-19T20:27:07.663Z,71.53
2022-10-19T20:29:37.410Z,71.12
2022-10-19T20:32:08.341Z,70.98
2022-10-19T20:34:38.178Z,71.50
2022-10-19T20:37:07.943Z,71.32
2022-10-19T20:39:37.747Z,71.53
2022-10-19T20:42:08.622Z,71.97
2022-10-19T20:44:38.356Z,72.55
2022-10-19T20:47:07.899Z,72.55
2022-10-19T20:49:38.081Z,72.55
2022-10-19T20:52:08.739Z,72.30
2022-10-19T20:54:38.483Z,72.42
2022-10-19T20:57:08.229Z,71.76
2022-10-19T20:59:39.449Z,72.53
2022-10-19T21:05:20.892Z,71.79
2022-10-19T21:07:50.626Z,71.67
2022-10-19T21:10:20.371Z,72.36
2022-10-19T21:12:49.842Z,72.24
2022-10-19T21:15:19.586Z,72.69
2022-10-19T21:17:49.331Z,72.39
2022-10-19T21:20:20.245Z,71.95
2022-10-19T21:22:50.292Z,71.69
2022-10-19T21:25:19.897Z,72.07
2022-10-19T21:27:52.548Z,72.24
2022-10-19T21:30:22.630Z,72.64
2022-10-19T21:32:52.383Z,72.95
2022-10-19T21:35:21.811Z,72.57
2022-10-19T21:37:51.575Z,72.30
2022-10-19T21:40:21.335Z,72.81
2022-10-19T21:42:51.374Z,73.15
2022-10-19T21:45:35.761Z,73.21
2022-10-19T21:47:52.310Z,73.11
2022-10-19T21:50:22.028Z,73.23
2022-10-19T21:52:51.766Z,73.21
2022-10-19T21:55:21.497Z,73.21
2022-10-19T21:57:50.977Z,72.91
2022-10-19T22:00:20.540Z,73.47
2022-10-19T22:02:50.354Z,73.18
2022-10-19T22:05:19.809Z,74.19
2022-10-19T22:07:49.621Z,73.17
2022-10-19T22:10:19.318Z,72.89
2022-10-19T22:12:49.146Z,73.04
2022-10-19T22:15:18.874Z,73.55
2022-10-19T22:17:48.666Z,73.55
2022-10-19T22:20:18.427Z,73.55
2022-10-19T22:22:50.270Z,73.72
2022-10-19T22:25:19.071Z,73.88
2022-10-19T22:27:48.859Z,74.54
2022-10-19T22:30:18.777Z,74.21
2022-10-19T22:32:48.570Z,74.21
2022-10-19T22:35:18.394Z,74.01
2022-10-19T22:37:47.872Z,74.60
2022-10-19T22:40:17.603Z,74.16
2022-10-19T22:42:47.333Z,74.71
2022-10-19T22:45:17.041Z,74.40
2022-10-19T22:47:46.770Z,74.56
2022-10-19T22:50:17.248Z,74.79
2022-10-19T22:52:46.955Z,75.01
2022-10-19T22:55:16.589Z,74.71
2022-10-19T22:57:46.328Z,74.83
2022-10-19T23:00:17.661Z,74.83
2022-10-19T23:02:47.391Z,75.14
2022-10-19T23:05:16.971Z,75.16
2022-10-19T23:07:46.714Z,74.91
2022-10-19T23:10:17.853Z,74.92
2022-10-19T23:12:52.537Z,75.34
2022-10-19T23:15:22.509Z,74.63
2022-10-19T23:17:52.297Z,74.41
2022-10-19T23:20:21.730Z,75.00
2022-10-19T23:22:51.725Z,74.67
2022-10-19T23:25:21.497Z,74.33
2022-10-19T23:27:51.261Z,75.30
2022-10-19T23:30:21.082Z,75.23
2022-10-19T23:32:50.878Z,74.84
2022-10-19T23:35:20.630Z,75.35
2022-10-19T23:37:50.405Z,75.57
2022-10-19T23:40:20.074Z,75.64
2022-10-19T23:42:49.815Z,74.61
2022-10-19T23:45:19.610Z,74.61
2022-10-19T23:47:49.640Z,75.93
2022-10-19T23:50:19.396Z,74.98
2022-10-19T23:52:49.437Z,75.03
2022-10-19T23:55:19.146Z,75.82
2022-10-19T23:57:48.892Z,76.04
